KOMK/OMK METAR and TAF weather

Enter ICAO airport designator
Station Type Date Time Source
KOMK METAR 2019/06/26 05:53 UTC NOAA

KOMK 260553Z AUTO 31008KT 10SM CLR 16/05 A2983 RMK AO2 SLP095 T01610050 10250 20161 51014


Station Type Date Time Source
KOMK Decoded METAR 2019/06/26 05:53 UTC NOAA

OMAK AIRPORT, WA, United States (KOMK) 48-28N 119-31W 395M
Jun 26, 2019 - 01:53 AM EDT / 2019.06.26 0553 UTC
Wind: from the NW (310 degrees) at 9 MPH (8 KT):0
Visibility: 10 mile(s):0
Sky conditions: clear
Temperature: 61.0 F (16.1 C)
Dew Point: 41.0 F (5.0 C)
Relative Humidity: 47%
Pressure (altimeter): 29.83 in. Hg (1010 hPa)
Pressure tendency: 0.04 inches (1.4 hPa) higher than three hours ago
ob: KOMK 260553Z AUTO 31008KT 10SM CLR 16/05 A2983 RMK AO2 SLP095 T01610050 10250 20161 51014
cycle: 6

Station Type Date Time Source
KOMK TAF UTC NOAA

Error!

Example: see airport list